createdAt,value
2017-11-18T09:59:02.871Z,9.45
2017-11-18T10:01:32.980Z,9.93
2017-11-18T10:04:01.377Z,10.04
2017-11-18T10:06:29.804Z,9.88
2017-11-18T10:08:59.055Z,10.01
2017-11-18T10:11:28.053Z,9.63
2017-11-18T10:13:57.167Z,9.77
2017-11-18T10:16:25.537Z,9.93
2017-11-18T10:21:16.202Z,9.76
2017-11-18T10:23:45.366Z,9.75
2017-11-18T10:26:13.760Z,9.61
2017-11-18T10:28:42.160Z,9.93
2017-11-18T10:31:10.546Z,9.83
2017-11-18T10:33:39.697Z,9.74
2017-11-18T10:36:08.115Z,9.98
2017-11-18T10:38:37.293Z,10.38
2017-11-18T10:41:05.777Z,10.29
2017-11-18T10:43:34.324Z,10.12
2017-11-18T10:46:02.707Z,9.88
2017-11-18T10:48:31.094Z,10.20
2017-11-18T10:51:00.319Z,10.00
2017-11-18T10:53:28.761Z,10.29
2017-11-18T10:55:57.133Z,10.58
2017-11-18T10:58:25.563Z,10.12
2017-11-18T11:00:54.221Z,9.97
2017-11-18T11:03:22.990Z,9.64
2017-11-18T11:05:51.634Z,9.75
2017-11-18T11:08:20.815Z,9.66
2017-11-18T11:10:49.204Z,9.65
2017-11-18T11:13:17.635Z,9.97
2017-11-18T11:15:46.045Z,10.03
2017-11-18T11:18:14.428Z,9.77
2017-11-18T11:20:43.633Z,9.89
2017-11-18T11:23:12.005Z,9.94
2017-11-18T11:25:40.389Z,10.02
2017-11-18T11:28:08.884Z,10.39
2017-11-18T11:30:37.302Z,10.29
2017-11-18T11:33:05.675Z,10.13
2017-11-18T11:35:34.101Z,9.92
2017-11-18T11:38:02.483Z,9.59
2017-11-18T11:40:30.893Z,9.06
2017-11-18T11:42:59.306Z,9.06
2017-11-18T11:45:28.610Z,9.25
2017-11-18T11:47:56.969Z,8.82
2017-11-18T11:50:25.592Z,8.78
2017-11-18T11:52:53.962Z,8.76
2017-11-18T11:55:23.127Z,8.85
2017-11-18T11:57:52.301Z,8.73
2017-11-18T12:00:20.688Z,8.91
2017-11-18T12:02:49.074Z,8.90
2017-11-18T12:05:18.197Z,8.77
2017-11-18T12:07:46.641Z,8.86
2017-11-18T12:10:15.028Z,8.88
2017-11-18T12:12:43.633Z,9.05
2017-11-18T12:15:12.034Z,9.34
2017-11-18T12:17:41.194Z,9.36
2017-11-18T12:20:09.668Z,9.36
2017-11-18T12:22:38.057Z,9.34
2017-11-18T12:25:07.214Z,9.34
2017-11-18T12:27:35.626Z,9.18
2017-11-18T12:30:04.031Z,9.19
2017-11-18T12:32:32.429Z,8.87
2017-11-18T12:35:00.973Z,8.65
2017-11-18T12:40:02.451Z,8.02
2017-11-18T12:42:31.411Z,8.03
2017-11-18T12:44:59.797Z,8.04
2017-11-18T12:47:28.214Z,8.21
2017-11-18T12:49:56.585Z,8.32
2017-11-18T12:52:25.735Z,8.36
2017-11-18T12:54:54.217Z,8.56
2017-11-18T12:57:23.527Z,8.62
2017-11-18T12:59:51.905Z,8.79
2017-11-18T13:02:20.458Z,8.74
2017-11-18T13:04:48.842Z,8.75
2017-11-18T13:07:17.236Z,8.60
2017-11-18T13:09:45.673Z,8.68
2017-11-18T13:12:14.059Z,8.81
2017-11-18T13:14:42.477Z,8.79
2017-11-18T13:17:12.147Z,8.93
2017-11-18T13:19:40.542Z,8.76
2017-11-18T13:22:08.939Z,8.33
2017-11-18T13:24:38.157Z,8.21
2017-11-18T13:27:06.548Z,8.10
2017-11-18T13:29:34.958Z,8.14
2017-11-18T13:32:04.152Z,8.11
2017-11-18T13:34:33.324Z,8.21
2017-11-18T13:37:01.704Z,7.85
2017-11-18T13:39:30.182Z,7.86
2017-11-18T13:41:58.573Z,7.97
2017-11-18T13:44:26.942Z,7.86
2017-11-18T13:46:55.379Z,7.64
2017-11-18T13:49:23.893Z,7.62
2017-11-18T13:51:52.276Z,7.76
2017-11-18T13:54:20.686Z,7.29
2017-11-18T13:56:49.857Z,7.38
2017-11-18T13:59:18.241Z,7.18
2017-11-18T14:01:46.938Z,7.33
2017-11-18T14:04:16.069Z,7.09
2017-11-18T14:06:44.476Z,7.31
2017-11-18T14:09:12.898Z,7.18
2017-11-18T14:11:41.293Z,7.26
2017-11-18T14:14:10.463Z,7.29
2017-11-18T14:16:38.897Z,7.42
2017-11-18T14:19:07.279Z,7.55
2017-11-18T14:21:35.667Z,7.42
2017-11-18T14:24:04.453Z,7.67
2017-11-18T14:26:32.850Z,7.57
2017-11-18T14:29:01.252Z,7.74
2017-11-18T14:31:29.681Z,7.76
2017-11-18T14:33:58.069Z,7.78
2017-11-18T14:36:26.461Z,7.96
2017-11-18T14:38:55.789Z,7.87
2017-11-18T14:41:24.190Z,8.04
2017-11-18T14:43:52.578Z,8.13
2017-11-18T14:46:21.915Z,7.82
2017-11-18T14:48:50.333Z,7.82
2017-11-18T14:51:18.726Z,7.83
2017-11-18T14:53:47.902Z,7.74
2017-11-18T14:56:16.325Z,7.80
2017-11-18T14:58:44.728Z,7.68
2017-11-18T15:01:13.573Z,7.64
2017-11-18T15:03:42.189Z,7.38
2017-11-18T15:06:10.604Z,7.59
2017-11-18T15:08:39.216Z,7.59
2017-11-18T15:11:07.818Z,7.40
2017-11-18T15:13:37.008Z,7.42
2017-11-18T15:16:05.714Z,7.46
2017-11-18T15:18:40.454Z,7.51
2017-11-18T15:21:15.229Z,7.60
2017-11-18T15:26:57.772Z,7.11
2017-11-18T15:29:29.575Z,7.10
2017-11-18T15:31:57.997Z,7.17
2017-11-18T15:34:30.245Z,7.15
2017-11-18T15:37:04.905Z,6.99
2017-11-18T15:39:33.816Z,7.23
2017-11-18T15:42:02.233Z,7.37
2017-11-18T15:47:44.683Z,7.28
2017-11-18T15:50:13.888Z,7.30
2017-11-18T15:55:53.480Z,7.33
2017-11-18T15:58:24.097Z,7.40
2017-11-18T16:00:58.688Z,7.44
2017-11-18T16:03:27.085Z,7.35
2017-11-18T16:05:56.255Z,7.51
2017-11-18T16:08:25.704Z,7.60
2017-11-18T16:10:54.114Z,7.72
2017-11-18T16:13:23.087Z,7.70
2017-11-18T16:15:51.556Z,7.47
2017-11-18T16:18:19.984Z,7.33
2017-11-18T16:20:49.535Z,7.25
2017-11-18T16:23:18.216Z,7.16
2017-11-18T16:25:46.984Z,6.82
2017-11-18T16:28:15.423Z,6.98
2017-11-18T16:30:44.489Z,7.00
2017-11-18T16:33:12.891Z,7.07
2017-11-18T16:35:41.266Z,7.10
2017-11-18T16:38:09.668Z,7.23
2017-11-18T16:40:38.054Z,7.07
2017-11-18T16:43:07.217Z,6.97
2017-11-18T16:45:35.758Z,7.04
2017-11-18T16:48:04.143Z,7.06
2017-11-18T16:50:32.545Z,7.22
2017-11-18T16:53:00.957Z,7.06
2017-11-18T16:55:29.383Z,7.10
2017-11-18T16:57:57.772Z,7.13
2017-11-18T17:00:27.462Z,7.10
2017-11-18T17:02:55.983Z,7.21
2017-11-18T17:05:24.382Z,7.27
2017-11-18T17:07:53.894Z,7.45
2017-11-18T17:10:22.295Z,7.55
2017-11-18T17:12:52.444Z,7.77
2017-11-18T17:15:20.886Z,7.71
2017-11-18T17:17:50.045Z,7.66
2017-11-18T17:20:18.447Z,7.61
2017-11-18T17:22:47.198Z,7.68
2017-11-18T17:25:15.585Z,7.55
2017-11-18T17:27:43.959Z,7.48
2017-11-18T17:30:13.284Z,7.14
2017-11-18T17:32:41.688Z,7.20
2017-11-18T17:35:10.086Z,7.09
2017-11-18T17:37:38.555Z,7.26
2017-11-18T17:40:07.696Z,7.23
2017-11-18T17:42:36.090Z,7.05
2017-11-18T17:45:04.510Z,6.94
2017-11-18T17:47:33.681Z,7.04
2017-11-18T17:50:02.891Z,7.29
2017-11-18T17:52:31.465Z,7.11
2017-11-18T17:54:59.857Z,7.08
2017-11-18T17:57:28.247Z,7.00
2017-11-18T17:59:56.662Z,6.98
2017-11-18T18:02:25.227Z,7.03
2017-11-18T18:04:53.609Z,6.81
2017-11-18T18:07:22.034Z,6.94
2017-11-18T18:09:50.409Z,6.71
2017-11-18T18:12:18.845Z,6.82
2017-11-18T18:14:48.094Z,6.96
2017-11-18T18:17:16.491Z,6.97
2017-11-18T18:19:44.908Z,7.08
2017-11-18T18:22:15.041Z,7.01
2017-11-18T18:24:43.435Z,6.99
2017-11-18T18:27:11.824Z,6.85
2017-11-18T18:29:40.252Z,6.84
2017-11-18T18:32:09.424Z,6.69
2017-11-18T18:34:37.838Z,6.63
2017-11-18T18:37:07.258Z,6.75
2017-11-18T18:39:35.638Z,6.80
2017-11-18T18:42:04.841Z,6.71
2017-11-18T18:44:33.793Z,6.72
2017-11-18T18:47:02.206Z,6.99
2017-11-18T18:49:30.710Z,7.12
2017-11-18T18:51:59.199Z,7.18
2017-11-18T18:54:27.583Z,7.27
2017-11-18T18:56:56.673Z,6.88
2017-11-18T18:59:26.126Z,7.06
2017-11-18T19:01:54.523Z,6.75
2017-11-18T19:04:22.921Z,6.78
2017-11-18T19:06:51.365Z,6.76
2017-11-18T19:09:20.407Z,6.85
2017-11-18T19:11:48.793Z,6.60
2017-11-18T19:14:18.309Z,6.69
2017-11-18T19:16:46.690Z,6.81
2017-11-18T19:19:15.355Z,6.76
2017-11-18T19:21:44.029Z,6.92
2017-11-18T19:24:12.421Z,7.09
2017-11-18T19:26:41.606Z,7.09
2017-11-18T19:29:10.052Z,7.16
2017-11-18T19:31:38.457Z,6.90
2017-11-18T19:34:06.844Z,6.88
2017-11-18T19:36:35.299Z,6.73
2017-11-18T19:39:03.692Z,6.66
2017-11-18T19:41:32.968Z,6.65
2017-11-18T19:44:01.751Z,6.56
2017-11-18T19:46:30.361Z,6.71
2017-11-18T19:48:59.524Z,6.70
2017-11-18T19:51:28.672Z,6.87
2017-11-18T19:53:57.073Z,6.81
2017-11-18T19:56:25.509Z,6.86
2017-11-18T19:58:54.421Z,6.96
2017-11-18T20:01:23.590Z,6.68
2017-11-18T20:03:52.203Z,6.82
2017-11-18T20:06:21.658Z,6.84
2017-11-18T20:08:50.062Z,6.71
2017-11-18T20:11:18.493Z,6.87
2017-11-18T20:13:46.943Z,6.74
2017-11-18T20:16:16.112Z,6.71
2017-11-18T20:18:45.402Z,6.74
2017-11-18T20:21:14.656Z,6.72
2017-11-18T20:23:43.089Z,6.78
2017-11-18T20:26:12.270Z,6.91
2017-11-18T20:28:40.743Z,6.79
2017-11-18T20:31:09.984Z,6.85
2017-11-18T20:33:39.165Z,6.93
2017-11-18T20:36:07.584Z,6.95
2017-11-18T20:38:35.978Z,6.80
2017-11-18T20:41:04.385Z,6.95
2017-11-18T20:43:32.827Z,6.89
2017-11-18T20:46:02.002Z,6.92
2017-11-18T20:48:30.681Z,6.94
2017-11-18T20:50:59.165Z,7.13
2017-11-18T20:53:27.591Z,7.23
2017-11-18T20:55:56.032Z,6.95
2017-11-18T20:58:25.247Z,6.93
2017-11-18T21:00:54.453Z,6.98
2017-11-18T21:03:22.884Z,7.08
2017-11-18T21:05:51.323Z,7.11
2017-11-18T21:08:19.728Z,6.77
2017-11-18T21:10:48.182Z,6.92
2017-11-18T21:13:16.855Z,6.79
2017-11-18T21:15:46.006Z,6.82
2017-11-18T21:18:14.420Z,6.76
2017-11-18T21:20:42.850Z,6.78
2017-11-18T21:23:11.302Z,6.88
2017-11-18T21:25:40.429Z,6.80
2017-11-18T21:28:08.882Z,6.67
2017-11-18T21:30:38.210Z,6.72
2017-11-18T21:33:06.620Z,6.83
2017-11-18T21:35:35.096Z,6.85
2017-11-18T21:38:03.511Z,6.69
2017-11-18T21:40:33.612Z,6.77
2017-11-18T21:43:02.127Z,6.61
2017-11-18T21:45:30.560Z,6.61
2017-11-18T21:47:58.967Z,6.46
2017-11-18T21:50:27.404Z,6.40
2017-11-18T21:52:57.749Z,6.39
2017-11-18T21:55:26.151Z,6.36
2017-11-18T21:57:54.769Z,6.16
2017-11-18T22:00:23.224Z,6.05
2017-11-18T22:02:52.280Z,6.29
2017-11-18T22:05:21.191Z,6.39
2017-11-18T22:07:49.646Z,6.46
2017-11-18T22:10:18.124Z,6.54
2017-11-18T22:12:46.574Z,6.60
2017-11-18T22:15:14.973Z,6.68
2017-11-18T22:17:43.403Z,6.79
2017-11-18T22:20:12.365Z,6.77
2017-11-18T22:22:40.801Z,6.89
2017-11-18T22:25:09.227Z,6.84
2017-11-18T22:27:37.646Z,6.76
2017-11-18T22:30:06.862Z,6.92
2017-11-18T22:32:35.292Z,6.90
2017-11-18T22:35:03.715Z,6.84
2017-11-18T22:37:32.937Z,6.93
2017-11-18T22:40:01.365Z,6.90
2017-11-18T22:42:30.336Z,6.73
2017-11-18T22:44:58.714Z,6.94
2017-11-18T22:47:27.163Z,6.97
2017-11-18T22:49:55.598Z,6.93
2017-11-18T22:52:23.974Z,7.02
2017-11-18T22:54:52.375Z,6.78
2017-11-18T22:57:21.578Z,6.75
2017-11-18T22:59:50.771Z,6.85
2017-11-18T23:02:19.154Z,6.74
2017-11-18T23:04:47.768Z,6.91
2017-11-18T23:07:16.964Z,6.80
2017-11-18T23:09:46.003Z,6.73
2017-11-18T23:12:14.417Z,6.77
2017-11-18T23:14:44.359Z,6.80
2017-11-18T23:17:12.724Z,6.37
2017-11-18T23:19:41.158Z,6.59
2017-11-18T23:22:09.535Z,6.50
2017-11-18T23:24:37.942Z,6.42
2017-11-18T23:27:06.420Z,6.48
2017-11-18T23:29:34.844Z,6.46
2017-11-18T23:32:03.229Z,6.55
2017-11-18T23:34:31.669Z,6.78
2017-11-18T23:37:00.100Z,6.58
2017-11-18T23:39:28.479Z,6.62
2017-11-18T23:41:57.157Z,6.64
2017-11-18T23:44:25.538Z,6.64
2017-11-18T23:46:53.916Z,6.46
2017-11-18T23:49:22.492Z,6.48
2017-11-18T23:51:51.580Z,6.18
2017-11-18T23:54:20.001Z,6.05
2017-11-18T23:56:48.426Z,6.39
2017-11-18T23:59:17.633Z,6.40
